Latest Weather Observations for Darwin Airport

IDD60901

Issued at 4:01 pm CST Wednesday 1 July 2015 (issued every 10 minutes, with the page automatically refreshed every 10 minutes)

About weather observations | Map of Darwin area stations | Latest observations for Darwin area | Other Formats
Station Details ID: 014015 Name: DARWIN AIRPORT Lat: -12.42 Lon: 130.89 Height: 30.4 m
Data from the previous 72 hours. | See also: Recent months at Darwin Airport
Date/Time
CST
Tmp

°C
App
Tmp
°C
Dew
Point
°C
Rel
Hum
%
Delta-T

°C
Wind Press
QNH
hPa
Press
MSL
hPa
Rain
since
9 am
mm
Dir
 
Spd
km/h
Gust
km/h
Spd
kts
Gust
kts
01/03:30pm 32.1 29.1 12.1 29 11.8 ENE 19 24 10 13 1013.5 - 0.0
01/03:00pm 32.1 29.7 12.8 30 11.5 E 17 26 9 14 1013.7 1013.5 0.0
01/02:30pm 32.4 28.7 12.6 30 11.8 E 24 32 13 17 1013.9 - 0.0
01/02:00pm 31.9 28.6 12.8 31 11.4 ENE 22 28 12 15 1014.5 - 0.0
01/01:30pm 30.5 27.8 13.5 35 10.2 SE 20 30 11 16 1015.3 - 0.0
01/01:00pm 30.1 27.8 14.0 37 9.7 SE 19 28 10 15 1016.0 - 0.0
01/12:30pm 29.6 25.9 14.0 38 9.4 ESE 26 35 14 19 1016.7 - 0.0
01/12:00pm 30.1 28.0 13.5 36 9.9 ESE 17 28 9 15 1017.4 1017.3 0.0
01/11:00am 28.7 28.1 13.6 39 9.0 S 9 13 5 7 1018.2 - 0.0
01/10:30am 27.6 26.9 14.2 43 8.0 ESE 11 15 6 8 1018.6 - 0.0
01/09:00am 24.7 25.4 18.0 66 4.2 SE 11 13 6 7 1018.4 1018.3 0.0
01/08:30am 23.5 25.0 18.9 75 2.9 SE 9 11 5 6 1018.0 - 0.0
01/07:30am 20.9 21.6 18.8 88 1.3 SE 13 15 7 8 1017.5 - 0.0
01/07:00am 20.7 20.2 19.1 90 1.0 SSE 20 26 11 14 1017.3 - 0.0
01/06:30am 19.7 21.4 18.6 93 0.7 E 7 7 4 4 1016.6 - 0.0
01/06:00am 19.7 22.7 18.4 92 0.8 CALM 0 0 0 0 1016.4 1016.2 0.0
01/05:30am 20.2 22.5 18.6 90 1.0 NE 4 7 2 4 1016.4 - 0.0
01/05:00am 20.9 22.9 19.2 90 1.1 N 7 9 4 5 1016.5 - 0.0
01/04:30am 21.6 24.4 18.9 84 1.7 ENE 2 9 1 5 1016.5 - 0.0
01/04:00am 21.5 22.9 18.6 83 1.8 WSW 9 11 5 6 1016.6 - 0.0
01/03:30am 22.0 25.2 18.8 82 2.0 CALM 0 0 0 0 1016.4 - 0.0
01/03:00am 22.2 25.4 18.9 81 2.1 CALM 0 0 0 0 1016.6 1016.4 0.0
01/02:30am 22.2 25.3 18.7 80 2.2 CALM 0 0 0 0 1016.7 - 0.0
01/02:00am 22.3 25.5 18.8 80 2.2 CALM 0 0 0 0 1016.8 - 0.0
01/01:30am 22.8 26.1 19.2 80 2.3 CALM 0 0 0 0 1016.9 - 0.0
01/01:00am 22.9 25.8 19.1 79 2.4 SSE 2 6 1 3 1017.1 - 0.0
01/12:30am 22.9 25.3 18.8 77 2.6 S 4 9 2 5 1017.0 - 0.0
 
Date/Time
CST
Tmp

°C
App
Tmp
°C
Dew
Point
°C
Rel
Hum
%
Delta-T

°C
Wind Press
QNH
hPa
Press
MSL
hPa
Rain
since
9 am
mm
Dir
 
Spd
km/h
Gust
km/h
Spd
kts
Gust
kts
30/11:30pm 22.5 24.5 19.2 81 2.1 SSW 7 11 4 6 1016.8 - 0.0
30/11:00pm 22.8 25.0 19.5 81 2.1 SSW 7 11 4 6 1016.8 - 0.0
30/10:30pm 23.8 25.1 19.3 76 2.9 SSW 11 17 6 9 1016.8 - 0.0
30/10:00pm 24.5 25.4 19.2 72 3.4 WSW 13 15 7 8 1016.6 - 0.0
30/09:30pm 24.3 25.4 19.6 75 3.0 WSW 13 15 7 8 1016.5 - 0.0
30/09:00pm 24.8 25.4 18.7 69 3.9 WSW 13 15 7 8 1016.2 1016.0 0.0
30/08:30pm 24.5 25.7 19.0 71 3.5 W 11 15 6 8 1015.8 - 0.0
30/08:00pm 24.1 24.8 18.0 68 3.8 W 11 13 6 7 1015.2 - 0.0
30/07:30pm 24.6 25.9 18.4 68 3.9 NNW 9 11 5 6 1014.6 - 0.0
30/07:00pm 25.6 27.1 18.9 66 4.3 NW 9 11 5 6 1014.4 - 0.0
30/06:30pm 26.3 27.0 17.9 60 5.3 NNW 11 15 6 8 1014.0 - 0.0
30/05:30pm 27.8 26.4 15.6 47 7.5 NNW 17 22 9 12 1013.4 - 0.0
30/05:00pm 28.6 26.4 14.3 41 8.6 NNW 19 22 10 12 1013.2 - 0.0
30/04:30pm 31.2 28.3 11.0 28 11.7 NNW 17 22 9 12 1013.2 - 0.0
30/04:00pm 32.0 27.5 4.1 17 14.5 N 17 22 9 12 1013.1 - 0.0
30/03:30pm 31.8 27.3 4.3 17 14.3 ESE 17 26 9 14 1013.1 - 0.0
30/03:00pm 31.6 27.4 5.9 20 13.7 SE 17 30 9 16 1013.5 1013.3 0.0
30/02:30pm 31.4 26.7 5.9 20 13.6 ESE 20 32 11 17 1013.9 - 0.0
30/02:00pm 31.2 25.6 5.5 20 13.6 E 24 35 13 19 1014.4 - 0.0
30/01:30pm 30.8 25.6 7.2 23 12.8 ESE 24 37 13 20 1015.0 - 0.0
30/01:00pm 30.2 25.3 6.7 23 12.6 E 22 33 12 18 1015.6 - 0.0
30/12:30pm 30.2 26.0 8.2 25 12.1 E 20 28 11 15 1016.0 - 0.0
30/12:00pm 29.8 24.9 8.3 26 11.8 ENE 24 33 13 18 1016.7 1016.5 0.0
30/11:30am 29.7 25.8 8.7 27 11.6 ESE 19 26 10 14 1017.1 - 0.0
30/11:00am 28.8 28.0 15.0 43 8.4 NE 13 20 7 11 1017.4 - 0.0
30/10:30am 27.4 26.9 15.0 46 7.5 ENE 11 19 6 10 1017.8 - 0.0
30/10:00am 26.6 27.7 18.8 62 5.0 NE 11 19 6 10 1018.0 - 0.0
30/09:30am 25.7 26.5 18.1 63 4.8 ENE 11 15 6 8 1018.0 - 0.0
30/09:00am 24.0 24.5 17.4 66 4.1 E 11 13 6 7 1017.8 1017.7 0.0
30/08:30am 22.4 22.8 17.2 72 3.2 ESE 11 13 6 7 1017.6 - 0.0
30/08:00am 20.6 21.3 17.0 80 2.2 E 9 13 5 7 1017.1 - 0.0
30/07:30am 19.0 18.8 16.7 86 1.4 ESE 13 15 7 8 1016.8 - 0.0
30/07:00am 18.5 18.8 17.0 91 0.9 ESE 11 13 6 7 1016.4 - 0.0
30/06:30am 18.7 19.1 17.2 91 0.9 E 11 13 6 7 1016.3 - 0.0
30/06:00am 18.5 18.5 17.2 92 0.8 E 13 17 7 9 1016.3 1016.1 0.0
30/05:30am 18.8 19.4 17.7 93 0.7 ENE 11 13 6 7 1016.1 - 0.0
30/05:00am 20.1 20.5 18.2 89 1.2 SSE 13 17 7 9 1015.8 - 0.0
30/04:30am 20.5 20.9 18.1 86 1.5 S 13 15 7 8 1015.9 - 0.0
30/04:00am 20.4 20.4 18.1 87 1.4 S 15 17 8 9 1015.9 - 0.0
30/03:30am 20.8 21.6 18.1 84 1.7 S 11 15 6 8 1015.9 - 0.0
30/03:00am 21.0 21.4 18.1 83 1.8 S 13 15 7 8 1016.0 1015.8 0.0
30/02:30am 21.2 21.4 18.5 84 1.7 SSW 15 17 8 9 1016.2 - 0.0
30/02:00am 21.4 22.3 18.5 83 1.8 SSW 11 13 6 7 1016.4 - 0.0
30/01:30am 21.7 22.8 18.8 83 1.8 SSW 11 13 6 7 1016.5 - 0.0
30/01:00am 20.6 21.5 18.5 88 1.3 SSW 11 11 6 6 1016.6 - 0.0
30/12:30am 21.7 22.8 18.8 83 1.8 SW 11 13 6 7 1016.6 - 0.0
30/12:00am 22.0 22.7 18.8 82 2.0 SW 13 15 7 8 1016.6 1016.4 0.0
 
Date/Time
CST
Tmp

°C
App
Tmp
°C
Dew
Point
°C
Rel
Hum
%
Delta-T

°C
Wind Press
QNH
hPa
Press
MSL
hPa
Rain
since
9 am
mm
Dir
 
Spd
km/h
Gust
km/h
Spd
kts
Gust
kts
29/11:30pm 21.6 23.5 18.9 84 1.7 WSW 7 11 4 6 1016.6 - 0.0
29/11:00pm 22.0 24.0 19.2 84 1.8 SW 7 9 4 5 1016.7 - 0.0
29/10:30pm 21.8 23.4 19.1 84 1.7 SW 9 11 5 6 1016.7 - 0.0
29/10:00pm 21.4 23.4 18.7 84 1.7 W 6 7 3 4 1016.5 - 0.0
29/09:30pm 22.6 24.5 19.0 80 2.3 W 7 9 4 5 1016.4 - 0.0
29/09:00pm 24.2 25.5 19.4 74 3.1 WSW 11 15 6 8 1016.2 1016.0 0.0
29/08:30pm 24.1 26.1 19.2 74 3.1 W 7 9 4 5 1015.9 - 0.0
29/08:00pm 24.3 26.0 19.3 73 3.2 WNW 9 11 5 6 1015.6 - 0.0
29/07:30pm 24.8 26.1 18.5 68 4.0 W 9 11 5 6 1015.2 - 0.0
29/07:00pm 25.5 26.4 18.4 65 4.5 NNW 11 13 6 7 1014.7 - 0.0
29/06:30pm 25.9 26.5 17.8 61 5.1 N 11 13 6 7 1014.2 - 0.0
29/06:00pm 27.2 27.2 17.1 54 6.3 NNW 13 17 7 9 1013.9 1013.7 0.0
29/05:30pm 27.8 26.8 15.5 47 7.5 N 15 19 8 10 1013.7 - 0.0
29/05:00pm 28.8 27.9 15.8 45 8.0 N 15 19 8 10 1013.7 - 0.0
29/04:30pm 28.7 26.9 14.5 42 8.6 N 17 22 9 12 1013.6 - 0.0
29/04:00pm 28.7 27.0 15.7 45 8.0 NW 19 24 10 13 1013.9 - 0.0
29/03:30pm 29.0 26.6 15.3 43 8.4 WNW 22 28 12 15 1013.9 - 0.0
29/03:00pm 30.7 27.6 13.5 35 10.3 WNW 22 28 12 15 1014.1 1013.9 0.0
29/02:30pm 29.4 26.3 12.3 34 10.0 W 20 30 11 16 1014.4 - 0.0
29/02:00pm 30.1 27.5 10.7 30 11.1 ENE 15 20 8 11 1014.9 - 0.0
29/01:30pm 29.3 26.0 9.4 29 11.1 ENE 17 26 9 14 1015.3 - 0.0
29/01:00pm 29.7 27.0 10.3 30 11.0 E 15 26 8 14 1015.8 - 0.0
29/12:30pm 29.0 26.2 11.5 33 10.1 ENE 17 28 9 15 1016.5 - 0.0
29/12:00pm 28.5 25.5 11.9 35 9.6 ENE 19 26 10 14 1016.9 1016.8 0.0
29/11:30am 28.8 25.7 12.1 35 9.7 ENE 20 32 11 17 1017.3 - 0.0
29/11:00am 28.0 24.7 12.8 39 8.9 E 22 30 12 16 1017.7 - 0.0
29/10:30am 27.2 24.3 13.0 41 8.3 E 20 24 11 13 1018.0 - 0.0
29/10:00am 27.0 25.4 14.9 47 7.3 ENE 17 26 9 14 1018.1 - 0.0
29/09:30am 25.4 25.7 15.9 55 5.8 SSE 9 13 5 7 1018.2 - 0.0
29/09:00am 24.5 24.0 15.0 55 5.7 SSE 11 13 6 7 1018.0 1017.9 0.0
29/08:30am 23.1 23.0 15.0 60 4.8 SE 9 11 5 6 1017.9 - 0.0
29/08:00am 21.4 22.3 16.1 72 3.2 S 6 7 3 4 1017.6 - 0.0
29/07:30am 19.2 20.0 16.4 84 1.7 SE 7 9 4 5 1017.4 - 0.0
29/07:00am 20.3 20.9 15.9 76 2.6 ESE 7 9 4 5 1017.2 - 0.0
29/06:30am 19.4 19.5 16.4 83 1.8 ESE 11 11 6 6 1017.2 - 0.0
29/06:00am 20.4 18.8 16.1 76 2.6 E 19 28 10 15 1017.2 1017.1 0.0
29/05:30am 17.7 18.1 16.2 91 0.9 WSW 9 11 5 6 1016.5 - 0.0
29/05:00am 17.8 20.0 16.6 93 0.7 CALM 0 0 0 0 1016.5 - 0.0
29/04:30am 18.3 20.6 16.8 91 0.9 CALM 0 0 0 0 1016.5 - 0.0
29/04:00am 18.8 19.5 17.1 90 1.0 S 9 15 5 8 1016.5 - 0.0
29/03:30am 20.1 21.3 17.3 84 1.7 S 7 9 4 5 1016.5 - 0.0
29/03:00am 18.3 19.0 17.1 93 0.7 E 9 15 5 8 1016.8 1016.7 0.0
29/02:30am 18.8 20.2 17.3 91 0.9 NE 6 7 3 4 1016.6 - 0.0
29/02:00am 19.4 20.0 17.8 90 1.0 NE 11 17 6 9 1017.0 - 0.0
29/01:30am 19.3 20.7 17.7 90 1.0 SW 7 11 4 6 1016.9 - 0.0
29/01:00am 20.8 22.1 18.4 86 1.5 SW 9 11 5 6 1017.0 - 0.0
29/12:30am 21.2 21.9 18.0 82 2.0 SW 11 13 6 7 1017.2 - 0.0
29/12:00am 19.3 19.9 15.9 81 2.0 SW 7 9 4 5 1017.5 1017.4 0.0
 
Date/Time
CST
Tmp

°C
App
Tmp
°C
Dew
Point
°C
Rel
Hum
%
Delta-T

°C
Wind Press
QNH
hPa
Press
MSL
hPa
Rain
since
9 am
mm
Dir
 
Spd
km/h
Gust
km/h
Spd
kts
Gust
kts
28/11:30pm 19.9 20.3 16.2 79 2.2 SSW 9 11 5 6 1017.5 - 0.0
28/11:00pm 18.6 20.7 16.3 86 1.4 CALM 0 7 0 4 1017.4 - 0.0
28/10:30pm 18.6 19.2 15.9 84 1.6 NE 7 9 4 5 1017.4 - 0.0
28/10:00pm 19.0 21.0 16.1 83 1.7 CALM 0 0 0 0 1017.4 - 0.0
28/09:30pm 19.5 21.6 16.2 81 2.0 CALM 0 0 0 0 1017.3 - 0.0
28/09:00pm 20.2 21.1 16.2 78 2.4 N 6 7 3 4 1017.1 1017.0 0.0
28/08:30pm 21.3 22.4 16.5 74 2.9 NW 6 7 3 4 1016.9 - 0.0
28/08:00pm 22.6 23.5 16.2 67 3.9 NW 6 7 3 4 1016.6 - 0.0
28/07:30pm 23.3 24.0 16.2 64 4.3 N 7 11 4 6 1016.3 - 0.0
28/07:00pm 24.3 24.7 16.3 61 4.9 NNE 9 11 5 6 1015.9 - 0.0
28/06:30pm 25.3 25.1 15.6 55 5.9 NNE 11 13 6 7 1015.7 - 0.0
28/06:00pm 26.6 25.4 15.0 49 7.0 N 15 19 8 10 1015.6 1015.4 0.0
28/05:30pm 27.8 26.5 14.7 44 7.9 N 15 19 8 10 1015.4 - 0.0
28/05:00pm 27.9 25.6 13.1 40 8.7 N 17 20 9 11 1015.3 - 0.0
28/04:30pm 28.4 25.6 11.3 34 9.8 N 17 20 9 11 1015.2 - 0.0

Latest Capital City Observations: Canberra | Sydney | Melbourne | Brisbane | Adelaide | Perth | Hobart | Darwin

Other Formats:

Comma delimited format used in spreadsheet applications
http://www.bom.gov.au/fwo/IDD60901/IDD60901.94120.axf

JavaScript Object Notation format (JSON) in row-major order
http://www.bom.gov.au/fwo/IDD60901/IDD60901.94120.json